createdAt,value
2019-04-04T00:03:15.156Z,12.00
2019-04-04T00:08:19.642Z,13.18
2019-04-04T00:13:24.077Z,13.20
2019-04-04T00:18:28.449Z,13.60
2019-04-04T00:23:32.962Z,14.55
2019-04-04T00:28:37.290Z,14.83
2019-04-04T00:33:41.612Z,15.15
2019-04-04T00:38:46.058Z,15.97
2019-04-04T00:43:51.871Z,17.02
2019-04-04T00:48:56.302Z,16.17
2019-04-04T00:54:00.644Z,18.87
2019-04-04T00:59:04.852Z,17.92
2019-04-04T01:04:09.095Z,17.98
2019-04-04T01:09:13.785Z,19.35
2019-04-04T01:14:18.211Z,19.30
2019-04-04T01:19:22.446Z,20.72
2019-04-04T01:24:28.852Z,21.55
2019-04-04T01:29:33.090Z,22.33
2019-04-04T01:34:37.658Z,22.57
2019-04-04T01:39:41.961Z,22.53
2019-04-04T01:44:46.254Z,24.53
2019-04-04T01:49:51.882Z,22.57
2019-04-04T01:54:57.811Z,23.35
2019-04-04T02:00:02.001Z,26.42
2019-04-04T02:05:07.259Z,26.17
2019-04-04T02:10:11.711Z,24.05
2019-04-04T02:15:16.043Z,26.00
2019-04-04T02:20:20.252Z,27.32
2019-04-04T02:25:24.449Z,25.05
2019-04-04T02:30:29.130Z,23.93
2019-04-04T02:35:33.641Z,25.37
2019-04-04T02:40:40.906Z,25.97
2019-04-04T02:45:43.868Z,25.82
2019-04-04T02:50:48.071Z,27.45
2019-04-04T02:55:52.313Z,28.10
2019-04-04T03:00:59.105Z,28.30
2019-04-04T03:06:02.869Z,29.37
2019-04-04T03:11:07.044Z,29.52
2019-04-04T03:16:11.315Z,30.12
2019-04-04T03:21:15.550Z,30.90
2019-04-04T03:26:20.574Z,29.70
2019-04-04T03:31:25.062Z,30.65
2019-04-04T03:36:30.757Z,31.00
2019-04-04T03:41:36.190Z,29.27
2019-04-04T03:46:40.649Z,31.48
2019-04-04T03:51:45.013Z,29.50
2019-04-04T03:56:49.287Z,31.50
2019-04-04T04:01:53.632Z,30.02
2019-04-04T04:06:57.929Z,30.15
2019-04-04T04:12:02.541Z,32.03
2019-04-04T04:17:09.217Z,31.60
2019-04-04T04:22:13.226Z,34.23
2019-04-04T04:27:18.702Z,35.68
2019-04-04T04:32:22.932Z,34.50
2019-04-04T04:37:27.466Z,32.85
2019-04-04T04:42:31.681Z,33.67
2019-04-04T04:47:35.912Z,34.10
2019-04-04T04:52:40.209Z,34.88
2019-04-04T04:57:44.418Z,35.25
2019-04-04T05:02:48.623Z,36.48
2019-04-04T05:07:54.835Z,37.60
2019-04-04T05:12:58.779Z,41.68
2019-04-04T05:18:02.988Z,38.45
2019-04-04T05:23:07.193Z,40.90
2019-04-04T05:28:11.535Z,42.27
2019-04-04T05:33:15.932Z,40.85
2019-04-04T05:38:20.123Z,43.30
2019-04-04T05:43:24.350Z,38.85
2019-04-04T05:48:29.199Z,39.38
2019-04-04T05:53:35.437Z,41.18
2019-04-04T05:58:39.900Z,36.98
2019-04-04T06:03:47.034Z,39.63
2019-04-04T06:08:50.138Z,37.00
2019-04-04T06:13:54.457Z,38.53
2019-04-04T06:18:58.645Z,39.70
2019-04-04T06:24:02.842Z,38.50
2019-04-04T06:29:07.033Z,39.30
2019-04-04T06:34:11.274Z,38.78
2019-04-04T06:39:15.535Z,34.38
2019-04-04T06:44:19.862Z,38.13
2019-04-04T06:49:24.041Z,34.73
2019-04-04T06:54:28.291Z,32.93
2019-04-04T06:59:32.994Z,30.60
2019-04-04T07:04:37.763Z,30.88
2019-04-04T07:09:41.959Z,27.93
2019-04-04T07:14:49.353Z,27.85
2019-04-04T07:19:52.175Z,27.27
2019-04-04T07:24:56.397Z,22.93
2019-04-04T07:30:00.671Z,25.50
2019-04-04T07:35:05.806Z,22.30
2019-04-04T07:40:10.144Z,20.70
2019-04-04T07:45:14.571Z,22.82
2019-04-04T07:50:18.919Z,24.27
2019-04-04T07:55:23.145Z,22.27
2019-04-04T08:00:27.406Z,25.43
2019-04-04T08:05:31.579Z,25.12
2019-04-04T08:10:35.978Z,23.70
2019-04-04T08:15:40.226Z,26.35
2019-04-04T08:20:44.576Z,26.17
2019-04-04T08:25:48.803Z,28.95
2019-04-04T08:30:53.011Z,24.90
2019-04-04T08:36:05.969Z,28.95
2019-04-04T08:41:03.247Z,27.75
2019-04-04T08:46:07.448Z,27.27
2019-04-04T08:51:11.802Z,28.23
2019-04-04T08:56:16.034Z,30.72
2019-04-04T09:01:20.243Z,27.55
2019-04-04T09:06:24.502Z,26.65
2019-04-04T09:11:29.980Z,27.13
2019-04-04T09:16:34.171Z,30.02
2019-04-04T09:21:38.360Z,29.25
2019-04-04T09:26:42.552Z,27.20
2019-04-04T09:31:46.782Z,26.42
2019-04-04T09:36:51.021Z,26.23
2019-04-04T09:41:55.215Z,27.58
2019-04-04T09:47:05.396Z,25.08
2019-04-04T09:52:05.484Z,25.80
2019-04-04T09:57:09.718Z,26.02
2019-04-04T10:02:14.002Z,24.85
2019-04-04T10:07:18.196Z,25.75
2019-04-04T10:12:21.948Z,23.92
2019-04-04T10:17:26.295Z,25.25
2019-04-04T10:22:30.499Z,26.90
2019-04-04T10:27:34.745Z,27.22
2019-04-04T10:32:39.255Z,25.68
2019-04-04T10:37:43.723Z,25.23
2019-04-04T10:42:48.023Z,27.48
2019-04-04T10:47:52.251Z,27.15
2019-04-04T10:52:56.608Z,24.85
2019-04-04T10:58:00.893Z,25.40
2019-04-04T11:03:05.162Z,24.43
2019-04-04T11:08:09.441Z,22.85
2019-04-04T11:13:16.623Z,25.30
2019-04-04T11:18:20.837Z,25.80
2019-04-04T11:23:25.121Z,27.15
2019-04-04T11:28:29.299Z,26.73
2019-04-04T11:33:33.536Z,23.47
2019-04-04T11:38:37.752Z,24.50
2019-04-04T11:43:41.963Z,26.87
2019-04-04T11:48:46.227Z,24.25
2019-04-04T11:53:50.430Z,22.62
2019-04-04T11:58:54.638Z,23.32
2019-04-04T12:03:58.816Z,25.85
2019-04-04T12:09:03.096Z,25.52
2019-04-04T12:14:07.300Z,26.75
2019-04-04T12:19:11.495Z,25.97
2019-04-04T12:24:15.812Z,29.27
2019-04-04T12:29:20.030Z,30.43
2019-04-04T12:34:24.222Z,29.10
2019-04-04T12:39:28.438Z,32.23
2019-04-04T12:44:32.615Z,30.48
2019-04-04T12:49:36.814Z,32.35
2019-04-04T12:54:41.132Z,31.62
2019-04-04T12:59:45.387Z,29.18
2019-04-04T13:04:49.591Z,30.35
2019-04-04T13:09:53.812Z,28.80
2019-04-04T13:14:58.017Z,32.08
2019-04-04T13:20:02.424Z,28.77
2019-04-04T13:25:07.588Z,28.42
2019-04-04T13:30:12.536Z,29.57
2019-04-04T13:35:16.777Z,26.25
2019-04-04T13:40:20.986Z,25.60
2019-04-04T13:45:25.938Z,27.45
2019-04-04T13:50:30.347Z,23.10
2019-04-04T13:55:34.552Z,23.27
2019-04-04T14:00:38.844Z,24.63
2019-04-04T14:05:43.161Z,25.65
2019-04-04T14:10:57.520Z,28.65
2019-04-04T14:15:53.386Z,27.17
2019-04-04T14:21:03.691Z,26.97
2019-04-04T14:26:03.599Z,25.02
2019-04-04T14:31:07.937Z,26.25
2019-04-04T14:36:12.264Z,25.35
2019-04-04T14:41:16.474Z,25.12
2019-04-04T14:46:20.819Z,25.48
2019-04-04T14:51:25.050Z,26.65
2019-04-04T14:56:29.310Z,29.70
2019-04-04T15:01:35.063Z,32.20
2019-04-04T15:06:39.585Z,33.85
2019-04-04T15:11:43.810Z,34.83
2019-04-04T15:16:48.101Z,33.45
2019-04-04T15:21:52.334Z,29.00
2019-04-04T15:26:56.539Z,29.95
2019-04-04T15:32:00.767Z,27.35
2019-04-04T15:37:05.053Z,27.65
2019-04-04T15:42:09.274Z,25.82
2019-04-04T15:47:13.479Z,27.42
2019-04-04T15:52:18.372Z,30.45
2019-04-04T15:57:22.684Z,30.50
2019-04-04T16:02:26.895Z,27.35
2019-04-04T16:07:31.170Z,30.55
2019-04-04T16:12:35.347Z,28.02
2019-04-04T16:17:39.973Z,31.02
2019-04-04T16:22:44.198Z,29.37
2019-04-04T16:27:48.416Z,31.00
2019-04-04T16:32:52.619Z,30.40
2019-04-04T16:37:56.906Z,31.73
2019-04-04T16:43:01.091Z,29.55
2019-04-04T16:48:05.298Z,28.02
2019-04-04T16:53:09.512Z,27.17
2019-04-04T16:58:13.738Z,37.53
2019-04-04T17:03:18.098Z,36.05
2019-04-04T17:08:22.323Z,35.75
2019-04-04T17:13:26.525Z,35.35
2019-04-04T17:18:30.712Z,33.90
2019-04-04T17:23:34.940Z,34.85
2019-04-04T17:28:39.214Z,34.45
2019-04-04T17:33:43.498Z,37.78
2019-04-04T17:38:47.721Z,36.40
2019-04-04T17:43:55.366Z,38.70
2019-04-04T17:48:59.840Z,36.28
2019-04-04T17:54:04.136Z,36.90
2019-04-04T17:59:08.520Z,38.48
2019-04-04T18:04:13.911Z,42.25
2019-04-04T18:09:30.869Z,44.93
2019-04-04T18:14:24.100Z,44.95
2019-04-04T18:19:28.442Z,51.75
2019-04-04T18:24:32.649Z,47.35
2019-04-04T18:29:37.048Z,48.65
2019-04-04T18:34:41.754Z,51.70
2019-04-04T18:39:46.274Z,50.52
2019-04-04T18:44:50.552Z,52.33
2019-04-04T18:49:54.894Z,54.30
2019-04-04T18:54:59.100Z,54.25
2019-04-04T19:00:03.474Z,55.58
2019-04-04T19:05:07.819Z,55.08
2019-04-04T19:10:12.362Z,55.85
2019-04-04T19:15:16.744Z,56.90
2019-04-04T19:20:21.125Z,59.80
2019-04-04T19:25:25.528Z,56.35
2019-04-04T19:30:29.908Z,55.20
2019-04-04T19:35:34.317Z,58.52
2019-04-04T19:40:38.772Z,61.05
2019-04-04T19:45:43.089Z,65.17
2019-04-04T19:50:47.368Z,63.17
2019-04-04T19:55:51.953Z,65.65
2019-04-04T20:00:56.966Z,67.35
2019-04-04T20:06:01.195Z,68.42
2019-04-04T20:11:05.517Z,69.35
2019-04-04T20:16:12.260Z,70.95
2019-04-04T20:21:15.955Z,73.17
2019-04-04T20:26:20.353Z,73.07
2019-04-04T20:31:25.672Z,72.47
2019-04-04T20:36:30.031Z,76.95
2019-04-04T20:41:34.994Z,71.90
2019-04-04T20:46:39.308Z,66.75
2019-04-04T20:51:43.505Z,71.82
2019-04-04T20:56:47.733Z,65.92
2019-04-04T21:01:52.078Z,71.92
2019-04-04T21:06:56.273Z,70.72
2019-04-04T21:12:00.506Z,67.85
2019-04-04T21:17:04.751Z,70.75
2019-04-04T21:22:08.972Z,61.63
2019-04-04T21:27:13.200Z,62.05
2019-04-04T21:32:17.465Z,65.60
2019-04-04T21:37:21.712Z,66.65
2019-04-04T21:42:25.982Z,71.20
2019-04-04T21:47:30.230Z,76.50
2019-04-04T21:52:34.984Z,74.22
2019-04-04T21:57:39.303Z,68.47
2019-04-04T22:02:43.675Z,63.52
2019-04-04T22:07:47.985Z,68.00
2019-04-04T22:12:52.270Z,77.67
2019-04-04T22:17:56.581Z,77.22
2019-04-04T22:23:00.893Z,86.02
2019-04-04T22:28:05.166Z,76.50
2019-04-04T22:33:09.486Z,80.90
2019-04-04T22:38:13.855Z,82.88
2019-04-04T22:43:18.156Z,86.28
2019-04-04T22:48:22.378Z,85.07
2019-04-04T22:53:26.612Z,81.30
2019-04-04T22:58:30.991Z,85.67
2019-04-04T23:03:35.297Z,84.47
2019-04-04T23:08:39.593Z,93.25
2019-04-04T23:13:43.864Z,89.87
2019-04-04T23:18:48.212Z,87.02
